Flight Track Log - Related Links

Times and Time Zones

All times are in EST time to prevent confusion due to time zone crossing. See the SWA1044 flight status page for this flight to view local times or setup timezone preferences in your user account.


Time Position Orientation Groundspeed Altitude Reporting Facility
EST Latitude Longitude Course Direction KTS MPH feet Rate Location/Type
Fri 11:08:15 PM 33.9461 -118.4494 266° West 169 194 1,500  Level Los Angeles Center
Fri 11:09:17 PM 33.9408 -118.5328 266° West 244 281 4,800 3,532 Climbing Los Angeles Center
Fri 11:10:19 PM 33.9342 -118.6244 265° West 272 313 8,800 2,049 Climbing Los Angeles Center
Fri 11:11:20 PM 33.9889 -118.6875 316° Northwest 280 322 9,000 98 Climbing Los Angeles Center
Fri 11:12:22 PM 34.0647 -118.6867 North 287 330 9,000 339 Level Los Angeles Center
Fri 11:13:24 PM 34.1347 -118.6592 18° North 285 328 9,700 1,659 Climbing Los Angeles Center
Fri 11:14:25 PM 34.2194 -118.6733 352° North 303 349 12,400 2,878 Climbing Los Angeles Center
Fri 11:15:27 PM 34.3192 -118.6897 352° North 351 404 15,600 3,220 Climbing Los Angeles Center
Fri 11:16:28 PM 34.4236 -118.7072 352° North 377 434 19,000 3,122 Climbing Los Angeles Center
Fri 11:17:30 PM 34.5303 -118.7269 351° North 388 447 22,000 2,758 Climbing Los Angeles Center
Fri 11:18:32 PM 34.6342 -118.7778 338° Northwest 402 463 24,700 2,732 Climbing Los Angeles Center
Fri 11:19:33 PM 34.7592 -118.8417 337° Northwest 406 467 27,600 2,293 Climbing Los Angeles Center
Fri 11:20:35 PM 34.8581 -118.9164 328° Northwest 420 483 29,400 1,935 Climbing Los Angeles Center
Fri 11:21:37 PM 34.9467 -119.0025 321° Northwest 420 483 31,600 2,098 Climbing Los Angeles Center
Fri 11:22:38 PM 35.0389 -119.0897 322° Northwest 421 484 33,700 1,854 Climbing Los Angeles Center
Fri 11:23:40 PM 35.1292 -119.1797 321° Northwest 420 483 35,400 1,113 Climbing Los Angeles Center
Fri 11:24:42 PM 35.2192 -119.2694 321° Northwest 420 483 36,000 293 Climbing Los Angeles Center
Fri 11:25:43 PM 35.3286 -119.3764 321° Northwest 420 483 36,000  Level Los Angeles Center
Fri 11:26:45 PM 35.4181 -119.4628 322° Northwest 415 478 36,000  Level Los Angeles Center
Fri 11:27:47 PM 35.5053 -119.5511 321° Northwest 412 474 36,000  Level Los Angeles Center
Fri 11:28:48 PM 35.5939 -119.6383 321° Northwest 410 472 36,000  Level Los Angeles Center
Fri 11:29:50 PM 35.6831 -119.7289 320° Northwest 413 475 36,000  Level Los Angeles Center
Fri 11:30:51 PM 35.7703 -119.8156 321° Northwest 406 467 36,000  Level Los Angeles Center
Fri 11:31:32 PM 35.8392 -119.8847 321° Northwest 409 471 36,000  Level Oakland Center
Fri 11:32:33 PM 35.9250 -119.9717 321° Northwest 405 466 36,000  Level Oakland Center
Fri 11:33:34 PM 36.0125 -120.0597 321° Northwest 407 468 36,000  Level Oakland Center
Fri 11:34:34 PM 36.0994 -120.1478 321° Northwest 406 467 36,000  Level Oakland Center
Fri 11:35:35 PM 36.1869 -120.2356 321° Northwest 406 467 36,000 -885 Level Oakland Center
Fri 11:36:36 PM 36.2725 -120.3253 320° Northwest 405 466 34,200 -2,262 Descending Oakland Center
Fri 11:37:37 PM 36.3597 -120.4142 321° Northwest 406 467 31,400 -2,557 Descending Oakland Center
Fri 11:38:38 PM 36.4428 -120.4992 321° Northwest 396 456 29,000 -1,869 Descending Oakland Center
Fri 11:39:39 PM 36.5394 -120.5981 321° Northwest 380 437 27,600 -1,180 Descending Oakland Center
Fri 11:40:40 PM 36.6203 -120.6831 320° Northwest 381 438 26,600 -984 Descending Oakland Center
Fri 11:41:41 PM 36.6997 -120.7653 320° Northwest 375 432 25,600 -984 Descending Oakland Center
Fri 11:42:42 PM 36.7756 -120.8475 319° Northwest 366 421 24,600 -1,180 Descending Oakland Center
Fri 11:43:43 PM 36.8475 -120.9294 318° Northwest 360 414 23,200 -1,721 Descending Oakland Center
Fri 11:44:44 PM 36.9167 -121.0108 317° Northwest 345 397 21,100 -2,016 Descending Oakland Center
Fri 11:45:45 PM 36.9850 -121.0889 318° Northwest 333 383 19,100 -1,820 Descending Oakland Center
Fri 11:46:46 PM 37.0483 -121.1614 318° Northwest 319 367 17,400 -2,033 Descending Oakland Center
Fri 11:47:46 PM 37.1194 -121.2442 317° Northwest 343 395 15,000 -2,430 Descending Oakland Center
Fri 11:48:47 PM 37.1894 -121.3247 317° Northwest 342 394 12,500 -2,213 Descending Oakland Center
Fri 11:49:48 PM 37.2572 -121.4036 317° Northwest 333 383 10,500 -1,230 Descending Oakland Center
Fri 11:50:49 PM 37.3208 -121.4781 317° Northwest 318 366 10,000 -1,082 Descending Oakland Center
Fri 11:51:50 PM 37.3856 -121.5517 318° Northwest 280 322 8,300 -1,620 Descending Oakland Center
Fri 11:52:29 PM 37.4167 -121.6000 309° West 267 307 7,300 -1,394 Descending Northern Cal TRACON
Fri 11:53:29 PM 37.4667 -121.6667 313° West 263 303 6,000 -650 Descending Northern Cal TRACON
Fri 11:54:29 PM 37.5000 -121.7500 297° West 265 305 6,000  Level Northern Cal TRACON
Fri 11:55:29 PM 37.5333 -121.8333 297° West 267 307 6,000 -650 Level Northern Cal TRACON
Fri 11:56:29 PM 37.5667 -121.9167 297° West 274 315 4,700 -900 Descending Northern Cal TRACON
Fri 11:57:29 PM 37.5833 -122.0000 284° West 245 282 4,200 -850 Descending Northern Cal TRACON
Fri 11:58:29 PM 37.6167 -122.0667 302° West 186 214 3,000 -1,000 Descending Northern Cal TRACON
Fri 11:59:29 PM 37.6333 -122.1167 293° West 157 181 2,200 -800 Descending Northern Cal TRACON
Sat 12:00:29 AM 37.6667 -122.1500 322° Northwest 142 163 1,400 -750 Descending Northern Cal TRACON
Sat 12:01:29 AM 37.6833 -122.1833 302° West 129 148 700 -700 Descending Northern Cal TRACON
Sat 12:03:00 AM 37.7167 -122.2167 270° West  Level FlightAware Approximate
Sat 12:10:00 AM 37.7213 -122.2212 270° West  Level Estimated
Sat 12:11:00 AM 37.7167 -122.2167 270° West  Level FlightAware Approximate

Login

Don't have an account? Register now (free) for customized features, flight alerts, and more!